createdAt,value
2023-02-11T00:01:36.666Z,30.17
2023-02-11T00:04:09.110Z,33.03
2023-02-11T00:06:36.815Z,30.53
2023-02-11T00:09:05.693Z,38.23
2023-02-11T00:11:33.414Z,31.47
2023-02-11T00:14:05.021Z,29.37
2023-02-11T00:16:32.685Z,31.57
2023-02-11T00:19:02.323Z,29.93
2023-02-11T00:21:30.319Z,41.43
2023-02-11T00:24:01.893Z,30.27
2023-02-11T00:26:35.600Z,32.00
2023-02-11T00:29:04.863Z,29.27
2023-02-11T00:31:32.502Z,36.90
2023-02-11T00:33:59.805Z,27.63
2023-02-11T00:36:29.876Z,26.30
2023-02-11T00:38:59.452Z,28.57
2023-02-11T00:41:27.010Z,35.57
2023-02-11T00:43:54.303Z,30.40
2023-02-11T00:46:22.666Z,31.33
2023-02-11T00:48:51.765Z,33.90
2023-02-11T00:51:21.443Z,33.43
2023-02-11T00:53:48.449Z,32.73
2023-02-11T00:56:15.684Z,28.40
2023-02-11T00:58:42.685Z,35.93
2023-02-11T01:01:09.865Z,31.87
2023-02-11T01:03:40.840Z,24.90
2023-02-11T01:06:10.106Z,34.47
2023-02-11T01:08:37.563Z,33.40
2023-02-11T01:11:13.208Z,33.97
2023-02-11T01:13:40.255Z,34.83
2023-02-11T01:16:10.740Z,35.33
2023-02-11T01:18:39.057Z,32.23
2023-02-11T01:21:06.177Z,28.90
2023-02-11T01:23:33.486Z,33.33
2023-02-11T01:26:00.499Z,27.60
2023-02-11T01:28:30.399Z,34.10
2023-02-11T01:30:58.358Z,30.20
2023-02-11T01:33:25.538Z,30.23
2023-02-11T01:35:53.190Z,28.40
2023-02-11T01:38:25.852Z,31.00
2023-02-11T01:41:03.067Z,31.33
2023-02-11T01:43:42.139Z,31.00
2023-02-11T01:46:37.313Z,27.97
2023-02-11T01:49:20.613Z,32.77
2023-02-11T01:52:00.022Z,32.00
2023-02-11T01:54:54.985Z,27.43
2023-02-11T01:57:28.641Z,31.23
2023-02-11T02:00:15.883Z,33.00
2023-02-11T02:03:00.840Z,38.33
2023-02-11T02:06:02.651Z,29.53
2023-02-11T02:09:05.084Z,32.03
2023-02-11T02:11:32.622Z,30.07
2023-02-11T02:14:00.039Z,26.83
2023-02-11T02:16:36.114Z,34.03
2023-02-11T02:19:47.684Z,29.23
2023-02-11T02:23:01.218Z,34.83
2023-02-11T02:26:23.177Z,34.43
2023-02-11T02:29:07.105Z,29.03
2023-02-11T02:32:22.192Z,32.00
2023-02-11T02:35:17.136Z,36.00
2023-02-11T02:38:19.067Z,38.63
2023-02-11T02:41:22.329Z,27.17
2023-02-11T02:43:52.222Z,33.63
2023-02-11T02:46:37.947Z,33.03
2023-02-11T02:49:13.409Z,36.47
2023-02-11T02:52:09.955Z,27.63
2023-02-11T02:55:20.422Z,35.30
2023-02-11T02:58:11.637Z,30.73
2023-02-11T03:01:41.312Z,31.13
2023-02-11T03:04:42.765Z,37.93
2023-02-11T03:07:48.483Z,45.40
2023-02-11T03:10:30.409Z,43.13
2023-02-11T03:12:59.793Z,36.73
2023-02-11T03:15:35.008Z,34.67
2023-02-11T03:18:06.637Z,32.57
2023-02-11T03:20:40.962Z,31.53
2023-02-11T03:23:51.089Z,31.80
2023-02-11T03:26:32.962Z,43.07
2023-02-11T03:29:35.513Z,32.23
2023-02-11T03:32:36.574Z,33.30
2023-02-11T03:35:32.981Z,37.73
2023-02-11T03:38:22.061Z,34.07
2023-02-11T03:40:51.749Z,32.73
2023-02-11T03:43:38.769Z,33.40
2023-02-11T03:46:10.539Z,36.23
2023-02-11T03:48:48.657Z,32.40
2023-02-11T03:51:17.628Z,37.07
2023-02-11T03:53:48.547Z,38.30
2023-02-11T03:56:26.183Z,40.07
2023-02-11T03:58:53.245Z,33.47
2023-02-11T04:01:20.529Z,36.00
2023-02-11T04:03:47.535Z,38.70
2023-02-11T04:06:14.775Z,44.63
2023-02-11T04:08:41.699Z,41.27
2023-02-11T04:11:09.150Z,39.90
2023-02-11T04:13:36.115Z,41.00
2023-02-11T04:16:03.309Z,34.20
2023-02-11T04:18:30.496Z,37.80
2023-02-11T04:20:57.552Z,37.30
2023-02-11T04:23:24.825Z,41.27
2023-02-11T04:25:52.179Z,38.53
2023-02-11T04:28:19.568Z,35.03
2023-02-11T04:30:46.709Z,36.23
2023-02-11T04:33:13.846Z,42.10
2023-02-11T04:35:40.828Z,40.03
2023-02-11T04:38:07.953Z,37.57
2023-02-11T04:40:35.070Z,41.13
2023-02-11T04:43:02.222Z,43.97
2023-02-11T04:45:29.291Z,41.80
2023-02-11T04:47:56.353Z,40.47
2023-02-11T04:50:23.309Z,35.30
2023-02-11T04:52:50.461Z,40.93
2023-02-11T04:55:17.556Z,36.73
2023-02-11T04:57:44.703Z,41.10
2023-02-11T05:00:13.149Z,40.50
2023-02-11T05:02:40.289Z,44.33
2023-02-11T05:05:07.789Z,40.27
2023-02-11T05:07:34.949Z,38.13
2023-02-11T05:10:01.979Z,41.73
2023-02-11T05:12:29.141Z,37.47
2023-02-11T05:14:56.150Z,43.30
2023-02-11T05:17:23.164Z,43.47
2023-02-11T05:19:50.290Z,40.47
2023-02-11T05:22:17.363Z,40.03
2023-02-11T05:24:44.542Z,42.70
2023-02-11T05:27:11.579Z,41.23
2023-02-11T05:29:39.038Z,44.47
2023-02-11T05:32:07.300Z,40.57
2023-02-11T05:34:34.870Z,41.37
2023-02-11T05:37:01.935Z,46.00
2023-02-11T05:39:29.261Z,43.23
2023-02-11T05:41:56.664Z,54.13
2023-02-11T05:44:23.868Z,43.60
2023-02-11T05:46:50.829Z,44.73
2023-02-11T05:49:18.794Z,42.77
2023-02-11T05:51:46.017Z,49.67
2023-02-11T05:54:13.326Z,45.03
2023-02-11T05:56:40.684Z,48.60
2023-02-11T05:59:09.030Z,47.37
2023-02-11T06:01:36.182Z,44.47
2023-02-11T06:04:03.427Z,46.43
2023-02-11T06:06:30.470Z,48.43
2023-02-11T06:08:57.804Z,46.93
2023-02-11T06:11:24.807Z,48.20
2023-02-11T06:13:52.126Z,50.13
2023-02-11T06:16:19.245Z,45.10
2023-02-11T06:18:46.370Z,46.17
2023-02-11T06:21:13.828Z,46.53
2023-02-11T06:23:40.995Z,41.00
2023-02-11T06:26:21.371Z,44.13
2023-02-11T06:28:48.517Z,42.93
2023-02-11T06:31:22.177Z,51.23
2023-02-11T06:33:50.592Z,50.23
2023-02-11T06:36:22.771Z,52.23
2023-02-11T06:38:50.759Z,48.33
2023-02-11T06:41:22.037Z,52.20
2023-02-11T06:43:52.705Z,53.97
2023-02-11T06:46:23.279Z,51.47
2023-02-11T06:48:50.255Z,52.63
2023-02-11T06:51:18.150Z,53.17
2023-02-11T06:53:47.210Z,51.67
2023-02-11T06:56:20.054Z,53.07
2023-02-11T06:58:48.305Z,53.63
2023-02-11T07:01:17.199Z,47.17
2023-02-11T07:03:45.933Z,51.67
2023-02-11T07:06:22.994Z,55.77
2023-02-11T07:08:50.301Z,51.23
2023-02-11T07:11:24.605Z,54.63
2023-02-11T07:13:55.354Z,50.67
2023-02-11T07:16:23.535Z,63.97
2023-02-11T07:18:50.534Z,51.90
2023-02-11T07:21:22.463Z,55.30
2023-02-11T07:23:49.742Z,53.90
2023-02-11T07:26:23.782Z,55.40
2023-02-11T07:28:51.787Z,57.47
2023-02-11T07:31:25.131Z,48.73
2023-02-11T07:33:57.605Z,49.87
2023-02-11T07:36:25.059Z,55.67
2023-02-11T07:38:51.982Z,52.13
2023-02-11T07:41:23.428Z,51.43
2023-02-11T07:43:51.629Z,48.83
2023-02-11T07:46:27.897Z,58.07
2023-02-11T07:48:56.056Z,45.10
2023-02-11T07:51:30.236Z,58.00
2023-02-11T07:54:00.304Z,43.73
2023-02-11T07:56:29.705Z,48.67
2023-02-11T07:59:03.164Z,48.53
2023-02-11T08:01:31.735Z,51.40
2023-02-11T08:04:02.009Z,168.63
2023-02-11T08:06:34.137Z,112.03
2023-02-11T08:09:13.969Z,47.60
2023-02-11T08:11:41.531Z,49.53
2023-02-11T08:14:09.853Z,50.17
2023-02-11T08:16:39.382Z,45.97
2023-02-11T08:19:16.969Z,45.10
2023-02-11T08:21:44.877Z,46.33
2023-02-11T08:24:14.692Z,49.43
2023-02-11T08:26:42.460Z,46.63
2023-02-11T08:29:15.018Z,44.47
2023-02-11T08:31:46.776Z,49.57
2023-02-11T08:34:18.944Z,46.67
2023-02-11T08:36:48.617Z,47.77
2023-02-11T08:39:22.643Z,48.07
2023-02-11T08:41:56.757Z,46.80
2023-02-11T08:44:24.890Z,47.83
2023-02-11T08:46:53.880Z,48.80
2023-02-11T08:49:22.289Z,50.57
2023-02-11T08:51:50.735Z,44.97
2023-02-11T08:54:18.574Z,44.77
2023-02-11T08:56:46.307Z,45.80
2023-02-11T08:59:15.461Z,47.43
2023-02-11T09:01:44.008Z,57.33
2023-02-11T09:04:11.280Z,49.70
2023-02-11T09:06:38.329Z,44.70
2023-02-11T09:09:05.838Z,44.00
2023-02-11T09:11:36.122Z,45.90
2023-02-11T09:14:05.047Z,47.90
2023-02-11T09:16:36.722Z,54.63
2023-02-11T09:19:05.777Z,46.00
2023-02-11T09:21:33.189Z,42.37
2023-02-11T09:24:00.492Z,43.67
2023-02-11T09:26:32.944Z,40.60
2023-02-11T09:29:02.084Z,39.80
2023-02-11T09:31:33.244Z,42.60
2023-02-11T09:34:05.706Z,48.30
2023-02-11T09:36:39.190Z,40.67
2023-02-11T09:39:14.702Z,39.13
2023-02-11T09:42:42.994Z,37.80
2023-02-11T09:45:33.672Z,42.10
2023-02-11T09:48:17.207Z,43.87
2023-02-11T09:51:04.020Z,48.90
2023-02-11T09:53:42.953Z,37.83
2023-02-11T09:56:15.519Z,80.80
2023-02-11T09:58:45.286Z,54.57
2023-02-11T10:01:50.217Z,39.03
2023-02-11T10:04:34.142Z,43.80
2023-02-11T10:07:34.376Z,42.07
2023-02-11T10:10:50.978Z,40.03
2023-02-11T10:13:51.300Z,39.80
2023-02-11T10:16:47.578Z,43.60
2023-02-11T10:19:50.268Z,44.60
2023-02-11T10:22:41.313Z,47.10
2023-02-11T10:25:45.490Z,40.40
2023-02-11T10:28:29.450Z,52.20
2023-02-11T10:31:06.970Z,44.80
2023-02-11T10:33:55.995Z,39.03
2023-02-11T10:36:31.198Z,47.70
2023-02-11T10:39:14.615Z,41.60
2023-02-11T10:42:10.903Z,47.43
2023-02-11T10:45:07.271Z,39.20
2023-02-11T10:47:40.531Z,46.27
2023-02-11T10:50:29.716Z,46.07
2023-02-11T10:53:24.500Z,43.30
2023-02-11T10:55:57.502Z,40.60
2023-02-11T10:58:37.198Z,39.67
2023-02-11T11:01:12.907Z,49.93
2023-02-11T11:03:55.708Z,47.30
2023-02-11T11:06:34.644Z,49.90
2023-02-11T11:09:02.569Z,40.30
2023-02-11T11:11:29.737Z,45.83
2023-02-11T11:14:03.368Z,44.60
2023-02-11T11:16:33.495Z,44.60
2023-02-11T11:19:13.700Z,47.00
2023-02-11T11:21:54.772Z,44.30
2023-02-11T11:24:34.608Z,47.23
2023-02-11T11:27:05.273Z,47.43
2023-02-11T11:29:45.113Z,40.67
2023-02-11T11:32:22.920Z,37.60
2023-02-11T11:34:55.811Z,44.63
2023-02-11T11:38:01.856Z,36.30
2023-02-11T11:40:35.308Z,39.57
2023-02-11T11:43:14.193Z,41.00
2023-02-11T11:46:00.370Z,44.83
2023-02-11T11:48:46.455Z,38.53
2023-02-11T11:51:14.258Z,36.37
2023-02-11T11:54:12.011Z,39.53
2023-02-11T11:57:13.570Z,33.10
2023-02-11T11:59:41.536Z,42.40
2023-02-11T12:02:54.925Z,41.63
2023-02-11T12:06:30.559Z,34.53
2023-02-11T12:09:29.693Z,33.70
2023-02-11T12:12:41.531Z,32.07
2023-02-11T12:15:48.733Z,33.53
2023-02-11T12:18:54.101Z,33.53
2023-02-11T12:22:20.606Z,29.37
2023-02-11T12:25:47.655Z,31.80
2023-02-11T12:28:54.244Z,33.50
2023-02-11T12:31:54.913Z,31.47
2023-02-11T12:35:09.593Z,33.30
2023-02-11T12:38:18.625Z,26.40
2023-02-11T12:41:44.312Z,24.60
2023-02-11T12:44:56.277Z,26.97
2023-02-11T12:48:10.680Z,22.67
2023-02-11T12:51:12.610Z,28.73
2023-02-11T12:54:05.291Z,25.83
2023-02-11T12:57:06.463Z,22.83
2023-02-11T13:00:17.272Z,25.43
2023-02-11T13:02:56.009Z,20.07
2023-02-11T13:05:25.617Z,24.03
2023-02-11T13:08:25.727Z,24.53
2023-02-11T13:11:04.524Z,21.00
2023-02-11T13:14:05.001Z,25.90
2023-02-11T13:16:50.621Z,21.07
2023-02-11T13:19:39.338Z,27.20
2023-02-11T13:22:34.215Z,22.50
2023-02-11T13:25:40.817Z,24.23
2023-02-11T13:28:51.961Z,24.33
2023-02-11T13:31:26.725Z,23.40
2023-02-11T13:33:54.148Z,27.57
2023-02-11T13:36:32.821Z,24.13
2023-02-11T13:39:06.677Z,22.07
2023-02-11T13:41:42.126Z,26.07
2023-02-11T13:44:08.956Z,22.93
2023-02-11T13:47:07.153Z,23.53
2023-02-11T13:49:49.384Z,23.27
2023-02-11T13:52:34.870Z,21.43
2023-02-11T13:55:14.243Z,21.90
2023-02-11T13:57:43.048Z,22.43
2023-02-11T14:00:35.297Z,23.67
2023-02-11T14:03:29.983Z,23.83
2023-02-11T14:06:27.681Z,25.53
2023-02-11T14:09:37.244Z,20.73
2023-02-11T14:12:37.157Z,25.33
2023-02-11T14:15:13.117Z,26.47
2023-02-11T14:17:40.158Z,20.40
2023-02-11T14:20:44.533Z,85.63
2023-02-11T14:23:27.412Z,30.13
2023-02-11T14:26:21.900Z,22.63
2023-02-11T14:29:32.369Z,26.57
2023-02-11T14:32:57.129Z,26.10
2023-02-11T14:36:00.162Z,17.70
2023-02-11T14:39:20.035Z,23.77
2023-02-11T14:41:51.243Z,21.80
2023-02-11T14:44:25.586Z,17.90
2023-02-11T14:46:54.902Z,19.57
2023-02-11T14:49:39.458Z,21.87
2023-02-11T14:52:34.270Z,17.50
2023-02-11T14:55:40.346Z,29.00
2023-02-11T14:58:17.847Z,18.77
2023-02-11T15:01:14.268Z,20.00
2023-02-11T15:03:50.017Z,18.07
2023-02-11T15:06:26.799Z,18.80
2023-02-11T15:09:19.469Z,23.97
2023-02-11T15:11:51.194Z,20.40
2023-02-11T15:14:42.470Z,20.90
2023-02-11T15:17:16.413Z,15.60
2023-02-11T15:19:53.169Z,18.83
2023-02-11T15:22:27.294Z,22.83
2023-02-11T15:25:17.386Z,15.13
2023-02-11T15:27:53.297Z,24.03
2023-02-11T15:30:23.532Z,17.40
2023-02-11T15:33:00.233Z,15.33
2023-02-11T15:35:41.250Z,18.50
2023-02-11T15:38:13.345Z,19.47
2023-02-11T15:40:40.778Z,16.00
2023-02-11T15:43:10.725Z,14.70
2023-02-11T15:46:02.219Z,19.43
2023-02-11T15:48:42.347Z,22.00
2023-02-11T15:51:31.288Z,18.53
2023-02-11T15:54:11.189Z,15.40
2023-02-11T15:56:51.942Z,16.83
2023-02-11T15:59:38.061Z,15.07
2023-02-11T16:02:36.705Z,18.33
2023-02-11T16:05:09.442Z,15.13
2023-02-11T16:07:51.591Z,18.63
2023-02-11T16:10:36.070Z,22.97
2023-02-11T16:13:09.886Z,17.47
2023-02-11T16:15:52.973Z,14.93
2023-02-11T16:18:52.001Z,14.70
2023-02-11T16:21:39.119Z,14.40
2023-02-11T16:24:17.418Z,14.53
2023-02-11T16:26:55.035Z,13.13
2023-02-11T16:29:30.899Z,17.40
2023-02-11T16:32:18.247Z,11.73
2023-02-11T16:34:46.806Z,13.23
2023-02-11T16:37:14.159Z,12.73
2023-02-11T16:39:47.236Z,12.70
2023-02-11T16:42:14.416Z,11.20
2023-02-11T16:44:41.526Z,15.93
2023-02-11T16:47:28.383Z,15.27
2023-02-11T16:49:57.621Z,12.93
2023-02-11T16:52:25.930Z,14.93
2023-02-11T16:54:53.342Z,12.77
2023-02-11T16:57:28.187Z,11.00
2023-02-11T16:59:57.523Z,11.93
2023-02-11T17:02:31.353Z,14.77
2023-02-11T17:05:08.332Z,16.00
2023-02-11T17:07:35.430Z,11.03
2023-02-11T17:10:02.516Z,15.50
2023-02-11T17:12:29.484Z,15.53
2023-02-11T17:14:56.600Z,13.47
2023-02-11T17:17:24.016Z,12.00
2023-02-11T17:19:51.406Z,14.73
2023-02-11T17:22:19.088Z,15.27
2023-02-11T17:24:46.221Z,14.40
2023-02-11T17:27:13.951Z,12.60
2023-02-11T17:29:41.203Z,16.30
2023-02-11T17:32:08.247Z,15.00
2023-02-11T17:34:35.342Z,19.57
2023-02-11T17:37:09.297Z,13.57
2023-02-11T17:39:40.871Z,13.97
2023-02-11T17:42:15.330Z,13.03
2023-02-11T17:44:44.529Z,13.00
2023-02-11T17:47:13.218Z,11.67
2023-02-11T17:49:41.006Z,10.67
2023-02-11T17:52:08.936Z,12.30
2023-02-11T17:54:35.898Z,12.77
2023-02-11T17:57:03.040Z,56.53
2023-02-11T17:59:35.286Z,62.83
2023-02-11T18:02:04.071Z,13.20
2023-02-11T18:04:32.507Z,10.37
2023-02-11T18:06:59.824Z,10.63
2023-02-11T18:09:27.039Z,10.60
2023-02-11T18:11:55.657Z,12.67
2023-02-11T18:14:25.702Z,9.80
2023-02-11T18:16:53.197Z,9.33
2023-02-11T18:19:23.348Z,12.53
2023-02-11T18:21:52.965Z,11.13
2023-02-11T18:24:20.138Z,9.70
2023-02-11T18:26:47.193Z,12.70
2023-02-11T18:29:14.492Z,10.53
2023-02-11T18:31:41.571Z,8.70
2023-02-11T18:34:10.728Z,9.50
2023-02-11T18:36:38.333Z,9.57
2023-02-11T18:39:05.882Z,10.57
2023-02-11T18:41:40.650Z,12.10
2023-02-11T18:44:08.188Z,11.20
2023-02-11T18:46:35.577Z,11.97
2023-02-11T18:49:02.730Z,9.80
2023-02-11T18:51:38.949Z,10.50
2023-02-11T18:54:08.500Z,11.30
2023-02-11T18:56:35.636Z,9.90
2023-02-11T18:59:03.154Z,10.63
2023-02-11T19:01:34.198Z,11.53
2023-02-11T19:04:05.376Z,10.63
2023-02-11T19:06:37.328Z,11.33
2023-02-11T19:09:19.606Z,11.80
2023-02-11T19:11:47.521Z,10.57
2023-02-11T19:14:28.456Z,11.10
2023-02-11T19:17:03.268Z,9.50
2023-02-11T19:19:35.250Z,10.30
2023-02-11T19:22:09.196Z,10.90
2023-02-11T19:24:38.196Z,9.87
2023-02-11T19:27:05.894Z,10.20
2023-02-11T19:29:35.216Z,9.03
2023-02-11T19:32:06.188Z,10.47
2023-02-11T19:34:41.286Z,8.43
2023-02-11T19:37:12.889Z,10.50
2023-02-11T19:39:42.677Z,10.27
2023-02-11T19:42:10.774Z,10.77
2023-02-11T19:44:38.718Z,9.97
2023-02-11T19:47:06.852Z,8.37
2023-02-11T19:49:34.244Z,7.70
2023-02-11T19:52:01.181Z,11.73
2023-02-11T19:54:31.505Z,7.87
2023-02-11T19:56:58.786Z,10.03
2023-02-11T19:59:26.635Z,11.00
2023-02-11T20:01:54.047Z,9.57
2023-02-11T20:04:21.305Z,10.43
2023-02-11T20:06:49.084Z,12.10
2023-02-11T20:09:16.457Z,9.00
2023-02-11T20:11:44.182Z,10.93
2023-02-11T20:14:15.135Z,8.97
2023-02-11T20:16:49.274Z,9.13
2023-02-11T20:19:22.305Z,10.77
2023-02-11T20:21:55.905Z,8.93
2023-02-11T20:24:25.534Z,8.43
2023-02-11T20:26:56.558Z,9.70
2023-02-11T20:29:25.686Z,10.90
2023-02-11T20:31:54.380Z,8.07
2023-02-11T20:34:22.155Z,10.17
2023-02-11T20:36:52.346Z,9.33
2023-02-11T20:39:24.963Z,10.10
2023-02-11T20:41:54.159Z,9.00
2023-02-11T20:44:22.241Z,10.77
2023-02-11T20:46:51.572Z,9.83
2023-02-11T20:49:24.430Z,9.30
2023-02-11T20:51:54.189Z,14.50
2023-02-11T20:54:23.466Z,10.30
2023-02-11T20:56:54.111Z,10.80
2023-02-11T20:59:21.593Z,10.90
2023-02-11T21:01:54.204Z,11.37
2023-02-11T21:04:29.807Z,9.90
2023-02-11T21:07:01.554Z,11.00
2023-02-11T21:09:33.145Z,9.30
2023-02-11T21:12:01.492Z,11.23
2023-02-11T21:14:30.140Z,7.83
2023-02-11T21:16:57.932Z,11.30
2023-02-11T21:19:25.306Z,11.20
2023-02-11T21:21:57.436Z,7.40
2023-02-11T21:24:24.576Z,11.47
2023-02-11T21:26:51.574Z,11.90
2023-02-11T21:29:18.903Z,9.07
2023-02-11T21:31:46.146Z,11.93
2023-02-11T21:34:13.162Z,10.40
2023-02-11T21:36:40.323Z,15.70
2023-02-11T21:39:07.598Z,12.80
2023-02-11T21:41:37.356Z,9.23
2023-02-11T21:44:04.970Z,14.03
2023-02-11T21:46:32.770Z,13.87
2023-02-11T21:49:00.742Z,12.03
2023-02-11T21:51:27.753Z,9.47
2023-02-11T21:54:03.025Z,10.90
2023-02-11T21:56:33.425Z,10.93
2023-02-11T21:59:03.258Z,14.90
2023-02-11T22:01:35.187Z,13.83
2023-02-11T22:04:02.522Z,13.73
2023-02-11T22:06:41.142Z,15.90
2023-02-11T22:09:11.528Z,13.73
2023-02-11T22:11:38.676Z,12.90
2023-02-11T22:14:06.120Z,11.67
2023-02-11T22:16:33.575Z,13.80
2023-02-11T22:19:02.574Z,11.07
2023-02-11T22:21:29.878Z,15.87
2023-02-11T22:23:57.382Z,14.70
2023-02-11T22:26:28.620Z,13.00
2023-02-11T22:28:56.987Z,9.50
2023-02-11T22:31:30.690Z,12.80
2023-02-11T22:34:00.187Z,12.93
2023-02-11T22:36:44.590Z,11.40
2023-02-11T22:39:22.341Z,13.20
2023-02-11T22:41:49.645Z,9.10
2023-02-11T22:44:28.519Z,13.07
2023-02-11T22:46:56.017Z,14.13
2023-02-11T22:49:23.688Z,19.23
2023-02-11T22:51:50.644Z,13.63
2023-02-11T22:54:19.348Z,13.73
2023-02-11T22:56:51.654Z,11.20
2023-02-11T22:59:19.304Z,16.37
2023-02-11T23:01:48.060Z,13.80
2023-02-11T23:04:19.118Z,12.53
2023-02-11T23:06:47.876Z,13.23
2023-02-11T23:09:14.976Z,17.27
2023-02-11T23:11:42.758Z,19.63
2023-02-11T23:14:11.983Z,18.40
2023-02-11T23:16:39.885Z,12.20
2023-02-11T23:19:10.361Z,16.47
2023-02-11T23:21:39.354Z,14.20
2023-02-11T23:24:14.777Z,13.13
2023-02-11T23:26:44.148Z,18.07
2023-02-11T23:29:12.573Z,15.70
2023-02-11T23:31:46.066Z,19.80
2023-02-11T23:34:23.806Z,13.20
2023-02-11T23:36:53.099Z,13.63
2023-02-11T23:39:20.881Z,11.80
2023-02-11T23:41:48.117Z,14.97
2023-02-11T23:44:15.193Z,20.43
2023-02-11T23:46:42.615Z,14.43
2023-02-11T23:49:09.891Z,12.90
2023-02-11T23:51:37.011Z,11.73
2023-02-11T23:54:04.342Z,15.27
2023-02-11T23:56:31.492Z,12.47
2023-02-11T23:58:59.302Z,15.70
